createdAt,value
2023-02-19T00:00:50.873Z,50.58
2023-02-19T00:03:21.679Z,47.33
2023-02-19T00:05:55.185Z,49.72
2023-02-19T00:08:25.876Z,46.67
2023-02-19T00:10:56.565Z,46.05
2023-02-19T00:13:27.032Z,45.40
2023-02-19T00:15:57.841Z,45.20
2023-02-19T00:18:28.422Z,43.17
2023-02-19T00:21:03.384Z,43.72
2023-02-19T00:23:34.372Z,41.47
2023-02-19T00:26:17.593Z,41.40
2023-02-19T00:28:50.608Z,42.42
2023-02-19T00:31:23.532Z,42.70
2023-02-19T00:33:56.161Z,42.73
2023-02-19T00:36:31.688Z,43.15
2023-02-19T00:39:02.665Z,41.75
2023-02-19T00:41:33.146Z,43.05
2023-02-19T00:44:06.104Z,41.80
2023-02-19T00:46:39.332Z,40.23
2023-02-19T00:49:11.559Z,40.60
2023-02-19T00:51:44.911Z,36.95
2023-02-19T00:54:15.504Z,36.95
2023-02-19T00:56:45.998Z,33.38
2023-02-19T00:59:16.477Z,34.22
2023-02-19T01:01:48.096Z,33.83
2023-02-19T01:04:18.950Z,31.55
2023-02-19T01:06:52.421Z,32.85
2023-02-19T01:09:23.956Z,28.80
2023-02-19T01:11:54.346Z,26.77
2023-02-19T01:14:24.631Z,24.92
2023-02-19T01:16:55.589Z,26.23
2023-02-19T01:19:26.542Z,24.27
2023-02-19T01:22:00.411Z,20.42
2023-02-19T01:24:33.718Z,20.58
2023-02-19T01:27:04.156Z,18.40
2023-02-19T01:29:34.705Z,16.65
2023-02-19T01:32:05.584Z,17.33
2023-02-19T01:34:36.581Z,19.00
2023-02-19T01:37:12.540Z,18.88
2023-02-19T01:39:43.629Z,28.05
2023-02-19T01:42:19.179Z,37.00
2023-02-19T01:45:19.989Z,36.90
2023-02-19T01:47:58.919Z,39.10
2023-02-19T01:50:32.316Z,39.90
2023-02-19T01:53:09.489Z,36.05
2023-02-19T01:55:40.136Z,33.53
2023-02-19T01:58:13.796Z,36.05
2023-02-19T02:00:45.804Z,34.35
2023-02-19T02:03:16.589Z,34.88
2023-02-19T02:05:55.731Z,34.65
2023-02-19T02:08:42.235Z,35.00
2023-02-19T02:11:13.324Z,37.08
2023-02-19T02:13:44.578Z,36.05
2023-02-19T02:16:27.772Z,34.15
2023-02-19T02:19:05.336Z,36.67
2023-02-19T02:22:07.945Z,35.53
2023-02-19T02:25:18.351Z,36.30
2023-02-19T02:27:59.733Z,34.38
2023-02-19T02:33:35.403Z,30.35
2023-02-19T02:38:43.717Z,31.60
2023-02-19T02:41:17.942Z,29.08
2023-02-19T02:46:23.836Z,27.15
2023-02-19T02:49:02.023Z,24.08
2023-02-19T02:51:37.785Z,24.48
2023-02-19T02:54:29.900Z,22.85
2023-02-19T02:57:04.265Z,23.38
2023-02-19T02:59:42.757Z,22.73
2023-02-19T03:02:15.464Z,21.55
2023-02-19T03:05:08.863Z,17.70
2023-02-19T03:07:42.711Z,17.70
2023-02-19T03:13:01.048Z,15.90
2023-02-19T03:15:49.401Z,15.00
2023-02-19T03:18:34.218Z,14.20
2023-02-19T03:21:11.080Z,16.00
2023-02-19T03:23:56.147Z,15.77
2023-02-19T03:26:29.141Z,16.15
2023-02-19T03:29:13.945Z,16.73
2023-02-19T03:31:48.226Z,18.08
2023-02-19T03:34:26.047Z,19.90
2023-02-19T03:37:05.757Z,20.38
2023-02-19T03:39:44.799Z,20.50
2023-02-19T03:42:24.875Z,24.45
2023-02-19T03:45:08.263Z,23.48
2023-02-19T03:47:50.377Z,23.58
2023-02-19T03:50:26.188Z,27.58
2023-02-19T03:53:06.975Z,27.98
2023-02-19T03:55:46.077Z,30.67
2023-02-19T03:58:22.574Z,36.03
2023-02-19T04:01:02.776Z,38.47
2023-02-19T04:03:40.450Z,39.75
2023-02-19T04:06:16.087Z,38.22
2023-02-19T04:08:53.684Z,41.83
2023-02-19T04:11:26.144Z,44.42
2023-02-19T04:14:07.269Z,45.90
2023-02-19T04:16:42.971Z,45.85
2023-02-19T04:19:16.746Z,50.58
2023-02-19T04:21:48.864Z,48.92
2023-02-19T04:24:26.150Z,46.60
2023-02-19T04:26:57.396Z,48.60
2023-02-19T04:29:27.807Z,50.72
2023-02-19T04:31:58.215Z,49.30
2023-02-19T04:34:29.028Z,47.50
2023-02-19T04:36:59.786Z,47.65
2023-02-19T04:39:32.952Z,47.78
2023-02-19T04:42:03.692Z,45.97
2023-02-19T04:44:34.100Z,44.92
2023-02-19T04:47:04.960Z,44.35
2023-02-19T04:49:36.073Z,39.90
2023-02-19T04:52:06.727Z,41.90
2023-02-19T04:54:40.284Z,41.70
2023-02-19T04:57:10.710Z,41.47
2023-02-19T04:59:41.125Z,41.75
2023-02-19T05:02:11.829Z,39.72
2023-02-19T05:04:42.410Z,40.22
2023-02-19T05:07:13.211Z,40.50
2023-02-19T05:09:46.398Z,40.33
2023-02-19T05:12:17.134Z,41.10
2023-02-19T05:14:49.447Z,40.65
2023-02-19T05:17:19.907Z,39.00
2023-02-19T05:19:50.320Z,39.65
2023-02-19T05:22:20.938Z,40.40
2023-02-19T05:24:54.617Z,39.53
2023-02-19T05:27:25.028Z,39.45
2023-02-19T05:29:55.735Z,38.63
2023-02-19T05:32:26.347Z,39.42
2023-02-19T05:34:57.053Z,38.30
2023-02-19T05:37:28.219Z,38.72
2023-02-19T05:40:01.765Z,36.80
2023-02-19T05:42:32.155Z,36.72
2023-02-19T05:45:02.469Z,36.42
2023-02-19T05:47:32.926Z,37.03
2023-02-19T05:50:03.517Z,36.80
2023-02-19T05:52:34.287Z,36.03
2023-02-19T05:55:07.715Z,38.75
2023-02-19T05:57:43.975Z,38.00
2023-02-19T06:00:16.329Z,36.60
2023-02-19T06:02:47.915Z,36.35
2023-02-19T06:05:18.264Z,35.83
2023-02-19T06:07:50.563Z,35.42
2023-02-19T06:10:24.061Z,37.38
2023-02-19T06:12:56.752Z,37.30
2023-02-19T06:15:27.993Z,37.22
2023-02-19T06:17:58.513Z,35.80
2023-02-19T06:20:33.576Z,36.30
2023-02-19T06:23:04.069Z,36.30
2023-02-19T06:25:37.574Z,35.47
2023-02-19T06:28:09.762Z,36.83
2023-02-19T06:30:44.298Z,35.08
2023-02-19T06:33:15.166Z,34.85
2023-02-19T06:35:45.784Z,33.20
2023-02-19T06:38:15.990Z,35.10
2023-02-19T06:40:49.436Z,37.28
2023-02-19T06:43:19.973Z,36.58
2023-02-19T06:45:50.631Z,38.58
2023-02-19T06:48:21.285Z,36.55
2023-02-19T06:50:52.978Z,35.70
2023-02-19T06:53:23.817Z,37.90
2023-02-19T06:56:04.052Z,38.05
2023-02-19T06:58:35.821Z,36.67
2023-02-19T07:01:07.064Z,35.30
2023-02-19T07:03:37.784Z,37.13
2023-02-19T07:06:11.277Z,37.85
2023-02-19T07:08:41.732Z,36.45
2023-02-19T07:11:15.379Z,36.70
2023-02-19T07:13:45.798Z,36.53
2023-02-19T07:16:18.594Z,36.60
2023-02-19T07:18:49.219Z,35.65
2023-02-19T07:21:20.698Z,35.83
2023-02-19T07:23:50.892Z,37.13
2023-02-19T07:26:25.432Z,38.03
2023-02-19T07:28:56.558Z,37.90
2023-02-19T07:31:30.561Z,37.78
2023-02-19T07:34:01.111Z,37.50
2023-02-19T07:36:32.032Z,38.03
2023-02-19T07:39:03.211Z,38.35
2023-02-19T07:41:36.370Z,38.53
2023-02-19T07:44:07.339Z,37.63
2023-02-19T07:46:37.678Z,38.78
2023-02-19T07:49:08.079Z,41.17
2023-02-19T07:51:40.445Z,38.00
2023-02-19T07:54:11.647Z,38.45
2023-02-19T07:56:44.867Z,40.05
2023-02-19T07:59:16.376Z,43.13
2023-02-19T08:01:59.114Z,40.88
2023-02-19T08:04:29.494Z,44.28
2023-02-19T08:07:00.150Z,42.88
2023-02-19T08:09:30.797Z,43.13
2023-02-19T08:12:16.270Z,42.03
2023-02-19T08:14:46.579Z,45.42
2023-02-19T08:17:16.999Z,45.03
2023-02-19T08:19:47.381Z,48.17
2023-02-19T08:22:18.174Z,46.63
2023-02-19T08:24:48.581Z,46.40
2023-02-19T08:27:21.909Z,48.65
2023-02-19T08:29:52.459Z,46.40
2023-02-19T08:32:23.686Z,46.63
2023-02-19T08:34:54.363Z,49.05
2023-02-19T08:38:15.687Z,51.08
2023-02-19T08:40:48.510Z,47.38
2023-02-19T08:43:23.017Z,50.78
2023-02-19T08:45:57.202Z,50.83
2023-02-19T08:48:40.389Z,52.40
2023-02-19T08:51:14.543Z,54.15
2023-02-19T08:53:53.238Z,51.90
2023-02-19T08:56:25.810Z,55.85
2023-02-19T08:58:59.448Z,55.70
2023-02-19T09:01:30.225Z,56.90
2023-02-19T09:04:00.868Z,56.47
2023-02-19T09:06:31.355Z,63.30
2023-02-19T09:09:01.710Z,67.30
2023-02-19T09:11:32.140Z,58.75
2023-02-19T09:14:07.838Z,53.53
2023-02-19T09:16:38.974Z,55.17
2023-02-19T09:19:09.455Z,52.85
2023-02-19T09:21:40.675Z,53.72
2023-02-19T09:24:13.764Z,54.85
2023-02-19T09:26:44.502Z,50.45
2023-02-19T09:29:18.417Z,53.13
2023-02-19T09:31:49.271Z,52.92
2023-02-19T09:34:19.757Z,50.83
2023-02-19T09:36:53.694Z,50.35
2023-02-19T09:39:25.366Z,54.20
2023-02-19T09:41:59.887Z,56.00
2023-02-19T09:44:40.258Z,54.70
2023-02-19T09:47:23.376Z,50.83
2023-02-19T09:50:00.412Z,51.40
2023-02-19T09:52:39.109Z,47.72
2023-02-19T09:55:29.690Z,48.90
2023-02-19T09:58:06.978Z,48.70
2023-02-19T10:00:41.920Z,46.30
2023-02-19T10:03:18.745Z,46.53
2023-02-19T10:05:49.584Z,46.83
2023-02-19T10:08:23.294Z,50.70
2023-02-19T10:10:54.758Z,47.53
2023-02-19T10:13:33.114Z,46.70
2023-02-19T10:16:11.495Z,42.75
2023-02-19T10:18:46.375Z,46.05
2023-02-19T10:21:20.967Z,50.50
2023-02-19T10:23:55.792Z,48.33
2023-02-19T10:26:27.884Z,50.80
2023-02-19T10:28:58.921Z,51.20
2023-02-19T10:31:35.695Z,50.50
2023-02-19T10:34:08.337Z,48.38
2023-02-19T10:36:45.618Z,50.63
2023-02-19T10:39:39.430Z,49.63
2023-02-19T10:42:17.362Z,49.53
2023-02-19T10:44:53.930Z,50.92
2023-02-19T10:47:50.191Z,49.80
2023-02-19T10:50:43.578Z,50.38
2023-02-19T10:53:25.695Z,47.58
2023-02-19T10:56:16.537Z,46.88
2023-02-19T10:58:49.002Z,43.53
2023-02-19T11:01:23.204Z,46.10
2023-02-19T11:04:34.113Z,45.60
2023-02-19T11:07:12.201Z,42.97
2023-02-19T11:09:47.436Z,43.33
2023-02-19T11:12:26.757Z,41.47
2023-02-19T11:14:57.795Z,42.65
2023-02-19T11:17:31.199Z,41.85
2023-02-19T11:20:10.672Z,44.05
2023-02-19T11:22:47.397Z,40.95
2023-02-19T11:25:32.020Z,38.63
2023-02-19T11:28:10.207Z,39.13
2023-02-19T11:30:46.475Z,39.47
2023-02-19T11:33:30.708Z,39.13
2023-02-19T11:36:32.589Z,38.13
2023-02-19T11:39:14.368Z,39.28
2023-02-19T11:42:28.283Z,39.78
2023-02-19T11:48:14.146Z,37.22
2023-02-19T11:50:58.362Z,39.05
2023-02-19T11:53:43.595Z,40.08
2023-02-19T11:59:30.311Z,39.30
2023-02-19T12:02:43.060Z,38.38
2023-02-19T12:05:27.776Z,39.88
2023-02-19T12:11:08.725Z,39.47
2023-02-19T12:13:58.810Z,39.95
2023-02-19T12:19:50.475Z,36.80
2023-02-19T12:29:01.791Z,35.42
2023-02-19T12:32:18.052Z,32.80
2023-02-19T12:35:10.756Z,33.20
2023-02-19T12:37:57.542Z,33.60
2023-02-19T12:40:45.633Z,31.27
2023-02-19T12:43:29.743Z,32.33
2023-02-19T12:46:06.968Z,32.80
2023-02-19T12:48:50.094Z,30.20
2023-02-19T12:51:27.159Z,32.00
2023-02-19T12:54:02.369Z,30.48
2023-02-19T12:56:38.016Z,27.75
2023-02-19T12:59:15.905Z,28.77
2023-02-19T13:01:52.887Z,29.65
2023-02-19T13:04:38.569Z,28.13
2023-02-19T13:07:16.308Z,25.73
2023-02-19T13:09:53.081Z,25.70
2023-02-19T13:12:28.596Z,25.17
2023-02-19T13:15:02.924Z,24.92
2023-02-19T13:17:42.345Z,28.40
2023-02-19T13:20:26.183Z,25.15
2023-02-19T13:23:17.968Z,25.20
2023-02-19T13:26:04.669Z,18.23
2023-02-19T13:28:52.348Z,13.57
2023-02-19T13:31:41.932Z,14.15
2023-02-19T13:34:23.657Z,8.98
2023-02-19T13:36:58.200Z,9.02
2023-02-19T13:39:31.159Z,8.23
2023-02-19T13:42:02.796Z,6.63
2023-02-19T13:44:35.416Z,6.45
2023-02-19T13:47:07.151Z,5.70
2023-02-19T13:49:52.886Z,5.35
2023-02-19T13:52:53.401Z,5.75
2023-02-19T13:55:53.564Z,6.55
2023-02-19T13:58:40.301Z,7.60
2023-02-19T14:01:16.814Z,7.85
2023-02-19T14:03:57.221Z,7.82
2023-02-19T14:06:28.854Z,7.47
2023-02-19T14:09:07.617Z,7.93
2023-02-19T14:12:06.271Z,6.43
2023-02-19T14:14:39.814Z,10.25
2023-02-19T14:17:31.888Z,6.35
2023-02-19T14:20:05.604Z,4.07
2023-02-19T14:57:15.745Z,1.08
2023-02-19T15:00:14.100Z,1.38
2023-02-19T15:03:17.312Z,1.35
2023-02-19T15:06:03.541Z,0.98
2023-02-19T15:08:57.427Z,1.05
2023-02-19T15:11:37.401Z,2.90
2023-02-19T15:17:23.228Z,1.90
2023-02-19T15:19:55.932Z,1.20
2023-02-19T15:22:32.509Z,1.73
2023-02-19T15:25:19.193Z,1.60
2023-02-19T15:27:52.877Z,1.80
2023-02-19T15:30:38.662Z,1.90
2023-02-19T15:33:31.647Z,2.53
2023-02-19T15:36:06.927Z,2.05
2023-02-19T15:38:41.183Z,3.00
2023-02-19T15:41:24.313Z,3.63
2023-02-19T15:44:09.633Z,2.35
2023-02-19T15:46:46.476Z,2.35
2023-02-19T15:49:33.146Z,2.70
2023-02-19T15:52:11.406Z,2.83
2023-02-19T15:54:53.224Z,6.65
2023-02-19T15:57:28.190Z,8.88
2023-02-19T16:00:06.373Z,4.47
2023-02-19T16:02:48.404Z,7.22
2023-02-19T16:05:37.553Z,10.65
2023-02-19T16:08:20.984Z,6.70
2023-02-19T16:11:09.723Z,4.60
2023-02-19T16:13:42.864Z,4.00
2023-02-19T16:16:23.553Z,6.40
2023-02-19T16:18:59.899Z,3.63
2023-02-19T16:21:39.659Z,4.88
2023-02-19T16:24:27.012Z,2.25
2023-02-19T16:27:05.287Z,2.27
2023-02-19T16:32:33.992Z,1.92
2023-02-19T16:38:16.432Z,4.93
2023-02-19T16:41:11.106Z,4.80
2023-02-19T16:44:09.872Z,3.58
2023-02-19T16:46:43.572Z,4.18
2023-02-19T16:49:28.155Z,4.32
2023-02-19T16:52:16.762Z,1.95
2023-02-19T16:54:53.583Z,1.40
2023-02-19T16:57:24.917Z,1.80
2023-02-19T16:59:57.635Z,2.20
2023-02-19T17:02:34.592Z,2.20
2023-02-19T17:05:11.646Z,2.10
2023-02-19T17:07:56.411Z,3.47
2023-02-19T17:10:42.140Z,1.60
2023-02-19T17:13:13.892Z,0.98
2023-02-19T17:15:45.358Z,1.00
2023-02-19T17:18:16.489Z,1.30
2023-02-19T17:21:18.599Z,1.50
2023-02-19T17:31:03.444Z,1.52
2023-02-19T17:33:46.613Z,1.92
2023-02-19T17:45:02.961Z,1.50
2023-02-19T18:23:39.879Z,2.83
2023-02-19T18:26:47.584Z,5.00
2023-02-19T18:29:23.032Z,6.78
2023-02-19T18:31:56.237Z,3.85
2023-02-19T18:34:32.848Z,1.77
2023-02-19T18:37:21.539Z,1.85
2023-02-19T18:39:59.156Z,1.13
2023-02-19T18:42:42.110Z,1.58
2023-02-19T18:45:26.825Z,1.20
2023-02-19T18:47:57.193Z,1.85
2023-02-19T18:50:27.826Z,1.80
2023-02-19T18:53:04.229Z,1.48
2023-02-19T18:55:34.642Z,1.25
2023-02-19T18:58:06.778Z,1.50
2023-02-19T19:00:37.948Z,1.30
2023-02-19T19:03:09.220Z,1.33
2023-02-19T19:05:40.002Z,2.42
2023-02-19T19:08:13.399Z,2.13
2023-02-19T19:10:43.757Z,1.55
2023-02-19T19:13:14.151Z,2.03
2023-02-19T19:15:45.608Z,1.10
2023-02-19T19:18:16.356Z,1.33
2023-02-19T19:20:47.046Z,1.17
2023-02-19T19:23:20.695Z,0.93
2023-02-19T19:25:51.136Z,1.48
2023-02-19T19:28:21.533Z,1.73
2023-02-19T19:30:53.080Z,1.92
2023-02-19T19:33:24.154Z,1.50
2023-02-19T19:35:54.824Z,1.10
2023-02-19T19:38:29.179Z,1.30
2023-02-19T19:40:59.567Z,2.60
2023-02-19T19:43:30.714Z,1.85
2023-02-19T19:46:01.633Z,1.58
2023-02-19T19:48:33.419Z,1.45
2023-02-19T19:51:04.601Z,1.73
2023-02-19T19:53:37.852Z,1.40
2023-02-19T19:56:11.683Z,2.08
2023-02-19T20:01:13.227Z,1.80
2023-02-19T20:03:43.966Z,1.88
2023-02-19T20:06:14.664Z,1.80
2023-02-19T20:08:48.632Z,2.00
2023-02-19T20:11:18.938Z,1.67
2023-02-19T20:13:49.096Z,1.63
2023-02-19T20:16:29.298Z,1.85
2023-02-19T20:18:59.572Z,1.70
2023-02-19T20:21:29.957Z,2.00
2023-02-19T20:24:03.484Z,2.03
2023-02-19T20:26:34.094Z,2.63
2023-02-19T20:29:06.674Z,3.20
2023-02-19T20:31:38.624Z,2.35
2023-02-19T20:34:09.600Z,2.42
2023-02-19T20:36:45.891Z,2.63
2023-02-19T20:39:20.450Z,3.08
2023-02-19T20:41:52.497Z,2.17
2023-02-19T20:44:23.255Z,2.30
2023-02-19T20:47:17.849Z,1.92
2023-02-19T20:50:02.499Z,1.83
2023-02-19T20:52:34.808Z,2.33
2023-02-19T20:55:08.621Z,2.10
2023-02-19T21:00:11.588Z,2.60
2023-02-19T21:02:42.884Z,3.60
2023-02-19T21:05:13.837Z,8.32
2023-02-19T21:07:44.493Z,9.38
2023-02-19T21:10:20.528Z,5.63
2023-02-19T21:12:52.603Z,2.95
2023-02-19T21:15:24.960Z,3.97
2023-02-19T21:17:55.403Z,4.07
2023-02-19T21:20:26.114Z,4.38
2023-02-19T21:22:57.055Z,5.43
2023-02-19T21:25:32.210Z,6.80
2023-02-19T21:28:03.401Z,9.70
2023-02-19T21:30:37.715Z,3.85
2023-02-19T21:33:08.934Z,4.03
2023-02-19T21:35:39.358Z,3.20
2023-02-19T21:38:09.758Z,2.72
2023-02-19T21:40:42.813Z,2.72
2023-02-19T21:43:13.266Z,2.50
2023-02-19T21:45:43.990Z,2.05
2023-02-19T21:48:16.556Z,1.85
2023-02-19T21:50:47.322Z,1.80
2023-02-19T21:53:18.788Z,2.00
2023-02-19T21:55:58.841Z,1.90
2023-02-19T21:58:29.749Z,2.50
2023-02-19T22:01:01.327Z,3.05
2023-02-19T22:03:31.900Z,2.30
2023-02-19T22:06:05.923Z,1.92
2023-02-19T22:08:36.542Z,2.10
2023-02-19T22:11:09.899Z,2.38
2023-02-19T22:13:40.509Z,2.83
2023-02-19T22:16:11.576Z,2.22
2023-02-19T22:18:42.545Z,2.67
2023-02-19T22:21:12.974Z,2.88
2023-02-19T22:23:46.879Z,2.63
2023-02-19T22:28:54.823Z,3.35
2023-02-19T22:31:27.668Z,2.63
2023-02-19T22:33:59.730Z,2.78
2023-02-19T22:36:35.024Z,3.00
2023-02-19T22:39:05.576Z,3.30
2023-02-19T22:41:39.500Z,3.00
2023-02-19T22:46:40.838Z,3.15
2023-02-19T22:49:19.437Z,3.05
2023-02-19T22:52:02.341Z,3.58
2023-02-19T22:54:33.329Z,3.63
2023-02-19T22:57:07.346Z,3.15
2023-02-19T22:59:37.842Z,4.05
2023-02-19T23:02:08.252Z,4.03
2023-02-19T23:04:38.742Z,4.03
2023-02-19T23:07:09.653Z,4.28
2023-02-19T23:09:40.349Z,4.30
2023-02-19T23:12:14.994Z,3.85
2023-02-19T23:14:45.742Z,4.32
2023-02-19T23:17:16.487Z,5.07
2023-02-19T23:19:47.406Z,4.70
2023-02-19T23:22:17.926Z,4.45
2023-02-19T23:24:48.608Z,5.28
2023-02-19T23:27:24.433Z,6.13
2023-02-19T23:29:54.660Z,5.65
2023-02-19T23:32:25.193Z,5.88
2023-02-19T23:34:55.505Z,5.43
2023-02-19T23:37:25.597Z,4.93
2023-02-19T23:39:56.226Z,5.65
2023-02-19T23:42:30.159Z,6.05
2023-02-19T23:47:31.626Z,5.25
2023-02-19T23:50:02.256Z,5.25
2023-02-19T23:52:32.859Z,5.68
2023-02-19T23:55:03.607Z,6.20
2023-02-19T23:57:37.425Z,6.53
